Time;durP1;ratioP1;P1;durP2;ratioP2;P2;SDS_P1;SDS_P2;PMS_P1;PMS_P2;Temp;Humidity;BMP_temperature;BMP_pressure;BME280_temperature;BME280_humidity;BME280_pressure;Samples;Min_cycle;Max_cycle;Signal;HPM_P1;HPM_P2
2024/02/12 00:02:55;;;;;;;1.73;1.40;;;;;;;;;;10206583;29;20527;-60
2024/02/12 00:07:56;;;;;;;1.85;1.42;;;;;;;;;;10208130;29;20488;-61
2024/02/12 00:12:57;;;;;;;1.58;1.48;;;;;;;;;;10207604;29;20392;-60
2024/02/12 00:17:59;;;;;;;2.92;1.67;;;;;;;;;;10207076;29;20031;-59
2024/02/12 00:23:00;;;;;;;4.03;1.70;;;;;;;;;;10207121;29;20071;-61
2024/02/12 00:28:00;;;;;;;6.47;1.77;;;;;;;;;;10206946;29;20027;-59
2024/02/12 00:33:04;;;;;;;3.13;1.30;;;;;;;;;;10206342;29;20440;-60
2024/02/12 00:38:04;;;;;;;2.47;1.52;;;;;;;;;;10205813;29;20559;-60
2024/02/12 00:43:05;;;;;;;8.68;1.80;;;;;;;;;;10207261;29;20034;-59
2024/02/12 00:48:06;;;;;;;2.70;1.35;;;;;;;;;;10205957;29;20038;-58
2024/02/12 00:53:07;;;;;;;1.83;1.40;;;;;;;;;;10206764;29;20027;-60
2024/02/12 00:58:09;;;;;;;2.97;1.55;;;;;;;;;;10205753;29;20048;-59
2024/02/12 01:03:10;;;;;;;1.60;1.50;;;;;;;;;;10205805;29;20024;-59
2024/02/12 01:08:11;;;;;;;3.92;1.92;;;;;;;;;;10205619;29;20042;-60
2024/02/12 01:13:12;;;;;;;2.60;1.52;;;;;;;;;;10193349;29;20542;-59
2024/02/12 01:18:14;;;;;;;1.60;1.50;;;;;;;;;;10206366;29;20636;-59
2024/02/12 01:23:15;;;;;;;2.85;1.60;;;;;;;;;;10205024;29;20120;-59
2024/02/12 01:28:16;;;;;;;6.10;1.70;;;;;;;;;;10204753;29;20039;-60
2024/02/12 01:33:20;;;;;;;1.92;1.38;;;;;;;;;;10205342;29;20039;-62
2024/02/12 01:38:20;;;;;;;2.88;1.25;;;;;;;;;;10203850;29;20079;-63
2024/02/12 01:43:34;;;;;;;3.25;1.27;;;;;;;;;;10207770;29;20054;-63
2024/02/12 01:48:36;;;;;;;2.25;1.50;;;;;;;;;;10213690;29;20036;-61
2024/02/12 01:53:42;;;;;;;2.50;1.30;;;;;;;;;;10213212;29;20031;-61
2024/02/12 01:58:45;;;;;;;6.78;1.50;;;;;;;;;;10212419;29;20032;-60
2024/02/12 02:03:46;;;;;;;1.30;1.20;;;;;;;;;;10212286;29;20031;-59
2024/02/12 02:08:47;;;;;;;7.13;1.40;;;;;;;;;;10212398;29;20035;-61
2024/02/12 02:13:49;;;;;;;3.28;1.60;;;;;;;;;;10212515;29;20111;-60
2024/02/12 02:18:52;;;;;;;2.05;1.15;;;;;;;;;;10210639;29;20032;-62
2024/02/12 02:23:59;;;;;;;3.33;1.40;;;;;;;;;;10211557;29;20023;-59
2024/02/12 02:29:00;;;;;;;1.30;1.20;;;;;;;;;;10210977;29;20031;-60
2024/02/12 02:34:02;;;;;;;2.97;1.33;;;;;;;;;;10210515;29;20024;-62
2024/02/12 02:39:03;;;;;;;5.45;1.10;;;;;;;;;;10211470;29;20139;-59
2024/02/12 02:44:04;;;;;;;2.58;1.33;;;;;;;;;;10210471;29;20035;-59
2024/02/12 02:49:04;;;;;;;1.48;0.98;;;;;;;;;;10210301;29;20094;-59
2024/02/12 02:54:08;;;;;;;3.45;1.20;;;;;;;;;;10211265;29;20036;-60
2024/02/12 02:59:09;;;;;;;1.30;1.20;;;;;;;;;;10210390;29;20020;-60
2024/02/12 03:04:13;;;;;;;3.70;1.40;;;;;;;;;;10209922;29;20542;-59
2024/02/12 03:09:13;;;;;;;1.67;1.48;;;;;;;;;;10210875;29;20090;-60
2024/02/12 03:14:14;;;;;;;4.05;1.40;;;;;;;;;;10210768;29;20027;-60
2024/02/12 03:19:15;;;;;;;2.90;1.17;;;;;;;;;;10209431;29;20030;-61
2024/02/12 03:24:19;;;;;;;3.10;1.20;;;;;;;;;;10209428;29;20039;-60
2024/02/12 03:29:20;;;;;;;1.30;1.20;;;;;;;;;;10210381;29;20131;-60
2024/02/12 03:34:20;;;;;;;1.20;1.10;;;;;;;;;;10209872;29;20035;-64
2024/02/12 03:39:21;;;;;;;2.33;1.25;;;;;;;;;;10208737;29;20048;-64
2024/02/12 03:44:22;;;;;;;1.20;1.10;;;;;;;;;;10208251;29;20353;-62
2024/02/12 04:00:01;;;;;;;1.67;0.90;;;;;;;;;;10209088;29;20028;-62
2024/02/12 04:05:02;;;;;;;2.65;1.30;;;;;;;;;;10207691;29;20035;-61
2024/02/12 04:10:03;;;;;;;1.13;1.02;;;;;;;;;;10207745;29;20032;-62
2024/02/12 04:15:05;;;;;;;1.20;1.10;;;;;;;;;;10207398;29;20051;-59
2024/02/12 04:20:10;;;;;;;1.42;1.23;;;;;;;;;;10207660;29;20042;-61
2024/02/12 04:25:12;;;;;;;1.40;1.20;;;;;;;;;;10207403;29;20039;-59
2024/02/12 04:30:13;;;;;;;1.45;1.20;;;;;;;;;;10206612;29;20491;-59
2024/02/12 04:35:14;;;;;;;1.58;1.00;;;;;;;;;;10206692;29;20039;-59
2024/02/12 04:40:15;;;;;;;1.10;1.08;;;;;;;;;;10206256;29;20047;-59
2024/02/12 04:45:16;;;;;;;1.33;1.20;;;;;;;;;;10206315;29;20035;-60
2024/02/12 04:50:17;;;;;;;1.10;1.00;;;;;;;;;;10206899;29;20028;-59
2024/02/12 04:55:18;;;;;;;1.13;1.02;;;;;;;;;;10207481;29;20034;-59
2024/02/12 05:00:19;;;;;;;1.48;1.23;;;;;;;;;;10206538;29;20468;-61
2024/02/12 05:05:19;;;;;;;1.33;1.23;;;;;;;;;;10206036;29;20038;-60
2024/02/12 05:10:20;;;;;;;1.40;1.00;;;;;;;;;;10206092;29;20027;-60
2024/02/12 05:15:21;;;;;;;2.05;1.13;;;;;;;;;;10205939;29;20020;-60
2024/02/12 05:25:40;;;;;;;2.85;1.10;;;;;;;;;;10205408;29;20495;-60
2024/02/12 05:30:41;;;;;;;1.95;1.10;;;;;;;;;;10205563;29;20035;-61
2024/02/12 05:35:42;;;;;;;1.13;1.10;;;;;;;;;;10205125;29;20527;-59
2024/02/12 05:40:42;;;;;;;1.10;1.00;;;;;;;;;;10205338;29;20102;-62
2024/02/12 05:45:43;;;;;;;1.05;0.98;;;;;;;;;;10204979;29;20396;-59
2024/02/12 05:50:45;;;;;;;1.20;1.10;;;;;;;;;;10204538;29;20384;-58
2024/02/12 05:55:45;;;;;;;1.25;1.08;;;;;;;;;;10205277;29;20028;-59
2024/02/12 06:00:46;;;;;;;1.20;1.10;;;;;;;;;;10205036;29;20054;-59
2024/02/12 06:05:50;;;;;;;0.90;0.90;;;;;;;;;;10204724;29;20139;-59
2024/02/12 06:10:50;;;;;;;1.10;1.00;;;;;;;;;;10205433;29;20401;-59
2024/02/12 06:15:51;;;;;;;0.82;0.82;;;;;;;;;;10204011;29;20087;-58
2024/02/12 06:20:52;;;;;;;1.00;1.00;;;;;;;;;;10199777;29;20035;-59
2024/02/12 06:25:52;;;;;;;0.90;0.90;;;;;;;;;;10225630;29;20039;-59
2024/02/12 06:30:53;;;;;;;1.20;1.10;;;;;;;;;;10216104;28;20031;-59
2024/02/12 06:35:56;;;;;;;1.77;0.98;;;;;;;;;;10210189;29;20579;-61
2024/02/12 06:40:59;;;;;;;1.17;1.05;;;;;;;;;;10198868;29;20499;-58
2024/02/12 06:46:00;;;;;;;1.08;0.98;;;;;;;;;;10202522;29;20036;-61
2024/02/12 06:51:08;;;;;;;0.80;0.80;;;;;;;;;;10209230;29;20046;-61
2024/02/12 06:56:09;;;;;;;4.13;1.27;;;;;;;;;;10204198;29;20064;-59
2024/02/12 07:01:12;;;;;;;0.93;0.93;;;;;;;;;;10204859;29;20035;-58
2024/02/12 07:06:13;;;;;;;1.13;1.02;;;;;;;;;;10205919;29;20131;-58
2024/02/12 07:11:14;;;;;;;1.13;1.02;;;;;;;;;;10206570;29;20035;-58
2024/02/12 07:16:19;;;;;;;4.65;1.60;;;;;;;;;;10205485;29;20127;-60
2024/02/12 07:21:20;;;;;;;1.42;1.33;;;;;;;;;;10200921;29;20031;-59
2024/02/12 07:26:21;;;;;;;7.95;1.20;;;;;;;;;;10209243;29;20032;-58
2024/02/12 07:31:23;;;;;;;7.07;1.10;;;;;;;;;;10208845;29;20043;-58
2024/02/12 07:36:23;;;;;;;2.72;1.20;;;;;;;;;;10208892;29;20319;-58
2024/02/12 07:41:26;;;;;;;4.30;1.35;;;;;;;;;;10208829;29;20572;-58
2024/02/12 07:46:28;;;;;;;4.88;1.30;;;;;;;;;;10209340;29;20035;-59
2024/02/12 07:51:29;;;;;;;1.30;1.20;;;;;;;;;;10209478;29;20039;-58
2024/02/12 07:56:29;;;;;;;1.88;1.25;;;;;;;;;;10208727;29;20028;-59
2024/02/12 08:01:30;;;;;;;4.32;1.20;;;;;;;;;;10207911;29;20399;-58
2024/02/12 08:06:30;;;;;;;2.45;1.20;;;;;;;;;;10208205;29;20615;-58
2024/02/12 08:11:31;;;;;;;2.08;1.25;;;;;;;;;;10207870;29;20335;-58
2024/02/12 08:16:33;;;;;;;4.78;1.42;;;;;;;;;;10207905;29;20401;-59
2024/02/12 08:21:34;;;;;;;2.60;1.40;;;;;;;;;;10207552;29;20051;-58
2024/02/12 08:26:34;;;;;;;2.95;1.20;;;;;;;;;;10207476;29;20106;-58
2024/02/12 08:31:35;;;;;;;6.40;1.33;;;;;;;;;;10207680;29;20031;-58
2024/02/12 08:36:39;;;;;;;5.78;1.50;;;;;;;;;;10207301;29;20054;-59
2024/02/12 08:41:40;;;;;;;1.77;1.17;;;;;;;;;;10206892;29;20035;-58
2024/02/12 08:46:42;;;;;;;1.27;1.17;;;;;;;;;;10206805;29;20999;-58
2024/02/12 08:51:45;;;;;;;4.13;1.20;;;;;;;;;;10207370;29;20063;-62
2024/02/12 08:56:46;;;;;;;6.13;1.52;;;;;;;;;;10207361;29;20629;-62
2024/02/12 09:01:47;;;;;;;3.45;1.02;;;;;;;;;;10206647;29;20183;-62
2024/02/12 09:06:48;;;;;;;4.28;1.30;;;;;;;;;;10206114;29;20544;-62
2024/02/12 09:11:48;;;;;;;5.07;1.40;;;;;;;;;;10205553;29;20057;-63
2024/02/12 09:16:49;;;;;;;1.75;1.13;;;;;;;;;;10206695;29;20028;-58
2024/02/12 09:21:50;;;;;;;1.23;1.10;;;;;;;;;;10204936;29;20365;-58
2024/02/12 09:26:52;;;;;;;5.45;1.20;;;;;;;;;;10205348;29;20031;-58
2024/02/12 09:31:52;;;;;;;2.47;1.27;;;;;;;;;;10205857;29;20544;-58
2024/02/12 09:36:54;;;;;;;1.90;1.30;;;;;;;;;;10205039;29;20071;-58
2024/02/12 09:41:56;;;;;;;2.03;1.40;;;;;;;;;;10205678;29;20027;-59
2024/02/12 09:47:04;;;;;;;1.20;1.00;;;;;;;;;;10205182;28;20036;-58
2024/02/12 09:52:05;;;;;;;3.08;1.35;;;;;;;;;;10218903;28;20059;-58
2024/02/12 09:57:08;;;;;;;2.08;1.25;;;;;;;;;;10219960;28;20066;-59
2024/02/12 10:02:09;;;;;;;1.83;1.30;;;;;;;;;;10204469;29;20067;-59
2024/02/12 10:07:09;;;;;;;1.88;1.23;;;;;;;;;;10212228;29;20468;-58
2024/02/12 10:12:11;;;;;;;1.40;1.30;;;;;;;;;;10212242;29;20094;-59
2024/02/12 10:17:12;;;;;;;1.48;1.15;;;;;;;;;;10212075;29;20495;-58
2024/02/12 10:22:13;;;;;;;1.60;1.30;;;;;;;;;;10199413;29;20132;-59
2024/02/12 10:27:14;;;;;;;3.80;1.30;;;;;;;;;;10211662;29;20114;-58
2024/02/12 10:32:15;;;;;;;3.88;1.48;;;;;;;;;;10211759;29;20403;-59
2024/02/12 10:37:19;;;;;;;2.03;1.10;;;;;;;;;;10226015;28;20043;-58
2024/02/12 10:42:28;;;;;;;1.52;1.10;;;;;;;;;;10210090;29;20051;-59
2024/02/12 10:47:29;;;;;;;1.48;1.35;;;;;;;;;;10211178;29;20035;-58
2024/02/12 10:52:31;;;;;;;5.45;1.20;;;;;;;;;;10209485;29;20427;-59
2024/02/12 10:57:32;;;;;;;1.40;1.30;;;;;;;;;;10210844;29;20024;-58
2024/02/12 11:02:45;;;;;;;4.63;1.20;;;;;;;;;;10209761;29;20107;-59
2024/02/12 11:07:46;;;;;;;2.80;1.20;;;;;;;;;;10210219;29;20491;-58
2024/02/12 11:12:47;;;;;;;3.67;1.30;;;;;;;;;;10197505;29;20027;-58
2024/02/12 11:17:48;;;;;;;2.00;1.30;;;;;;;;;;10209565;29;20536;-58
2024/02/12 11:22:51;;;;;;;2.20;1.33;;;;;;;;;;10210026;29;20047;-58
2024/02/12 11:27:57;;;;;;;1.48;1.20;;;;;;;;;;10210065;29;20059;-58
2024/02/12 11:32:59;;;;;;;2.30;1.10;;;;;;;;;;10210283;29;20035;-58
2024/02/12 11:38:00;;;;;;;1.23;1.10;;;;;;;;;;10209797;29;20051;-60
2024/02/12 11:43:01;;;;;;;1.38;1.27;;;;;;;;;;10208357;29;20519;-58
2024/02/12 11:48:12;;;;;;;2.67;1.27;;;;;;;;;;10218319;29;20027;-59
2024/02/12 11:53:12;;;;;;;1.05;1.05;;;;;;;;;;10209269;29;20031;-58
2024/02/12 11:58:16;;;;;;;1.42;1.15;;;;;;;;;;10208688;29;20028;-58
2024/02/12 12:03:17;;;;;;;1.00;1.00;;;;;;;;;;10208938;29;20399;-58
2024/02/12 12:08:27;;;;;;;1.23;1.10;;;;;;;;;;10208273;29;20043;-57
2024/02/12 12:13:30;;;;;;;2.60;1.05;;;;;;;;;;10208433;29;20031;-58
2024/02/12 12:18:30;;;;;;;1.42;1.20;;;;;;;;;;10207766;29;20059;-58
2024/02/12 12:23:31;;;;;;;1.73;1.20;;;;;;;;;;10207865;29;20110;-57
2024/02/12 12:28:32;;;;;;;2.45;1.00;;;;;;;;;;10207131;29;20054;-58
2024/02/12 12:33:33;;;;;;;1.10;1.00;;;;;;;;;;10207798;29;20090;-58
2024/02/12 12:38:36;;;;;;;3.47;1.30;;;;;;;;;;10206888;29;20091;-59
2024/02/12 12:43:37;;;;;;;2.20;1.10;;;;;;;;;;10207026;29;20381;-62
2024/02/12 12:48:38;;;;;;;3.28;1.35;;;;;;;;;;10203590;29;20544;-59
2024/02/12 12:53:39;;;;;;;1.10;1.00;;;;;;;;;;10198058;29;20032;-60
2024/02/12 12:58:39;;;;;;;1.20;1.10;;;;;;;;;;10206133;29;20027;-62
2024/02/12 13:03:40;;;;;;;1.58;1.10;;;;;;;;;;10205862;29;20027;-58
2024/02/12 13:08:44;;;;;;;3.47;1.02;;;;;;;;;;10203229;29;20086;-59
2024/02/12 13:13:45;;;;;;;1.52;1.10;;;;;;;;;;10195884;29;20039;-60
2024/02/12 13:18:46;;;;;;;1.20;1.10;;;;;;;;;;10205564;29;20028;-58
2024/02/12 13:23:46;;;;;;;1.35;1.10;;;;;;;;;;10206069;29;20032;-58
2024/02/12 13:28:47;;;;;;;1.23;1.13;;;;;;;;;;10205137;29;20038;-63
2024/02/12 13:33:49;;;;;;;1.75;1.20;;;;;;;;;;10205955;29;20268;-62
2024/02/12 13:38:51;;;;;;;2.45;1.08;;;;;;;;;;10205963;29;20542;-62
2024/02/12 13:43:52;;;;;;;1.73;0.93;;;;;;;;;;10206493;29;20080;-58
2024/02/12 13:48:52;;;;;;;3.08;1.15;;;;;;;;;;10213387;29;20051;-59
2024/02/12 13:53:53;;;;;;;1.17;1.08;;;;;;;;;;10213167;29;20035;-58
2024/02/12 13:58:53;;;;;;;1.40;0.93;;;;;;;;;;10212834;29;20145;-59
2024/02/12 14:03:54;;;;;;;1.60;1.25;;;;;;;;;;10212770;29;20038;-58
2024/02/12 14:08:56;;;;;;;3.33;1.20;;;;;;;;;;10211219;29;20067;-59
2024/02/12 14:13:56;;;;;;;1.80;1.00;;;;;;;;;;10212128;29;20373;-59
2024/02/12 14:18:57;;;;;;;1.02;1.00;;;;;;;;;;10210814;29;20039;-59
2024/02/12 14:23:58;;;;;;;1.95;1.15;;;;;;;;;;10211952;29;20032;-59
2024/02/12 14:29:00;;;;;;;1.92;1.08;;;;;;;;;;10211549;29;20082;-58
2024/02/12 14:34:01;;;;;;;1.88;1.17;;;;;;;;;;10211523;29;20038;-58
2024/02/12 14:39:04;;;;;;;1.08;0.98;;;;;;;;;;10211078;29;20066;-59
2024/02/12 14:44:04;;;;;;;0.90;0.90;;;;;;;;;;10212676;29;20028;-59
2024/02/12 14:49:05;;;;;;;1.05;0.95;;;;;;;;;;10209961;29;20035;-58
2024/02/12 14:54:05;;;;;;;4.72;1.20;;;;;;;;;;10210975;29;20055;-58
2024/02/12 14:59:07;;;;;;;3.38;1.38;;;;;;;;;;10211313;29;20024;-58
2024/02/12 15:04:07;;;;;;;2.05;1.13;;;;;;;;;;10211056;29;20059;-60
2024/02/12 15:09:09;;;;;;;3.97;1.60;;;;;;;;;;10211026;29;20039;-59
2024/02/12 15:14:10;;;;;;;4.38;1.40;;;;;;;;;;10210799;29;20114;-58
2024/02/12 15:19:10;;;;;;;1.85;1.00;;;;;;;;;;10210760;29;20547;-59
2024/02/12 15:24:12;;;;;;;1.30;1.20;;;;;;;;;;10210526;29;20377;-58
2024/02/12 15:29:15;;;;;;;2.97;1.10;;;;;;;;;;10210391;29;20036;-59
2024/02/12 15:34:16;;;;;;;1.10;0.98;;;;;;;;;;10210405;29;20059;-58
2024/02/12 15:39:17;;;;;;;0.98;0.95;;;;;;;;;;10209572;29;20043;-59
2024/02/12 15:44:18;;;;;;;2.13;1.25;;;;;;;;;;10209467;29;20038;-59
2024/02/12 15:49:18;;;;;;;0.90;0.90;;;;;;;;;;10208486;29;20224;-61
2024/02/12 15:54:22;;;;;;;1.55;1.20;;;;;;;;;;10208725;29;20417;-58
2024/02/12 15:59:23;;;;;;;3.13;1.02;;;;;;;;;;10208854;29;20043;-58
2024/02/12 16:04:23;;;;;;;5.03;1.40;;;;;;;;;;10208457;29;20039;-59
2024/02/12 16:09:24;;;;;;;1.25;1.15;;;;;;;;;;10208177;29;20448;-59
2024/02/12 16:14:25;;;;;;;1.17;1.08;;;;;;;;;;10208441;29;20032;-58
2024/02/12 16:19:27;;;;;;;1.77;1.10;;;;;;;;;;10208050;29;20625;-59
2024/02/12 16:24:28;;;;;;;2.35;1.00;;;;;;;;;;10207829;29;20027;-59
2024/02/12 16:29:30;;;;;;;2.78;1.20;;;;;;;;;;10207302;29;20399;-59
2024/02/12 16:34:31;;;;;;;1.33;1.10;;;;;;;;;;10208281;29;20024;-58
2024/02/12 16:39:31;;;;;;;1.25;1.15;;;;;;;;;;10207127;28;20522;-58
2024/02/12 16:44:32;;;;;;;2.20;1.45;;;;;;;;;;10207073;29;20028;-59
2024/02/12 16:49:32;;;;;;;3.08;1.00;;;;;;;;;;10206782;29;20149;-58
2024/02/12 16:54:34;;;;;;;1.80;1.30;;;;;;;;;;10205969;29;20036;-59
2024/02/12 16:59:34;;;;;;;2.60;1.25;;;;;;;;;;10184186;29;22553;-59
2024/02/12 17:04:35;;;;;;;3.22;1.30;;;;;;;;;;10170003;29;20086;-58
2024/02/12 17:09:35;;;;;;;1.25;1.20;;;;;;;;;;10064823;28;20039;-58
2024/02/12 17:14:37;;;;;;;1.50;1.20;;;;;;;;;;10160916;28;20040;-58
2024/02/12 17:19:39;;;;;;;1.63;1.15;;;;;;;;;;10191980;29;20039;-58
2024/02/12 17:24:39;;;;;;;6.95;1.45;;;;;;;;;;10186752;29;20511;-58
2024/02/12 17:29:42;;;;;;;2.22;1.40;;;;;;;;;;10161463;29;20052;-57
2024/02/12 17:34:42;;;;;;;2.67;1.42;;;;;;;;;;10138260;29;20059;-57
2024/02/12 17:39:44;;;;;;;3.00;1.05;;;;;;;;;;10141862;29;21907;-58
2024/02/12 17:44:48;;;;;;;1.90;1.17;;;;;;;;;;10065152;28;20399;-58
2024/02/12 17:49:48;;;;;;;1.38;1.23;;;;;;;;;;10067978;28;20971;-58
2024/02/12 17:54:50;;;;;;;1.35;1.25;;;;;;;;;;10064055;29;20361;-58
2024/02/12 17:59:52;;;;;;;1.63;1.10;;;;;;;;;;10064732;29;20656;-59
2024/02/12 18:04:52;;;;;;;2.63;1.10;;;;;;;;;;10067810;28;20031;-58
2024/02/12 18:09:53;;;;;;;1.23;1.10;;;;;;;;;;10111059;28;20027;-59
2024/02/12 18:14:53;;;;;;;2.25;1.13;;;;;;;;;;10184171;29;20082;-58
2024/02/12 18:19:55;;;;;;;1.10;1.00;;;;;;;;;;10176247;29;20353;-58
2024/02/12 18:24:56;;;;;;;4.28;1.13;;;;;;;;;;10206063;28;20038;-58
2024/02/12 18:29:57;;;;;;;1.85;1.30;;;;;;;;;;10191336;29;20493;-58
2024/02/12 18:34:58;;;;;;;2.33;1.25;;;;;;;;;;10117563;28;20083;-58
2024/02/12 18:39:59;;;;;;;1.23;1.10;;;;;;;;;;10142335;28;20119;-60
2024/02/12 18:45:00;;;;;;;1.30;1.20;;;;;;;;;;10110485;28;20436;-59
2024/02/12 18:50:01;;;;;;;2.33;1.13;;;;;;;;;;10070261;29;20038;-58
2024/02/12 18:55:04;;;;;;;2.20;1.35;;;;;;;;;;10069557;29;20094;-58
2024/02/12 19:00:06;;;;;;;3.10;1.30;;;;;;;;;;10065930;29;20039;-58
2024/02/12 19:05:07;;;;;;;1.48;1.30;;;;;;;;;;10127220;29;20109;-58
2024/02/12 19:10:11;;;;;;;2.00;1.20;;;;;;;;;;10168841;28;21509;-58
2024/02/12 19:15:17;;;;;;;2.10;1.20;;;;;;;;;;10142271;29;20043;-58
2024/02/12 19:20:18;;;;;;;1.30;1.20;;;;;;;;;;10193720;29;20361;-58
2024/02/12 19:25:18;;;;;;;1.85;1.40;;;;;;;;;;10165705;29;20024;-58
2024/02/12 19:30:19;;;;;;;2.00;1.30;;;;;;;;;;10100075;29;20051;-58
2024/02/12 19:35:19;;;;;;;4.97;1.45;;;;;;;;;;10131104;29;20484;-58
2024/02/12 19:40:21;;;;;;;1.15;1.10;;;;;;;;;;10131615;28;20052;-59
2024/02/12 19:45:22;;;;;;;1.42;1.33;;;;;;;;;;10241036;28;20513;-58
2024/02/12 19:50:24;;;;;;;2.85;1.25;;;;;;;;;;10175795;28;20023;-59
2024/02/12 19:55:27;;;;;;;1.20;1.00;;;;;;;;;;10174402;28;20487;-58
2024/02/12 20:00:28;;;;;;;2.47;1.25;;;;;;;;;;10103052;28;20031;-59
2024/02/12 20:05:28;;;;;;;1.05;1.02;;;;;;;;;;10106910;28;20035;-60
2024/02/12 20:10:29;;;;;;;1.30;1.20;;;;;;;;;;10108046;28;20435;-60
2024/02/12 20:15:29;;;;;;;2.05;1.27;;;;;;;;;;10102689;28;20562;-58
2024/02/12 20:20:32;;;;;;;1.50;1.40;;;;;;;;;;10142240;28;20059;-61
2024/02/12 20:25:35;;;;;;;1.75;1.48;;;;;;;;;;10208838;28;20065;-59
2024/02/12 20:30:36;;;;;;;1.15;1.05;;;;;;;;;;10227734;28;20030;-60
2024/02/12 20:35:37;;;;;;;2.97;1.40;;;;;;;;;;10246329;28;20093;-60
2024/02/12 20:40:37;;;;;;;1.50;1.40;;;;;;;;;;10243184;28;20114;-63
2024/02/12 20:45:38;;;;;;;2.03;1.30;;;;;;;;;;10243726;28;20035;-66
2024/02/12 20:50:40;;;;;;;1.40;1.30;;;;;;;;;;10243330;28;20273;-68
2024/02/12 20:55:40;;;;;;;1.15;1.10;;;;;;;;;;10244881;28;20039;-63
2024/02/12 21:00:41;;;;;;;2.95;1.58;;;;;;;;;;10244386;28;20023;-59
2024/02/12 21:05:43;;;;;;;1.40;1.30;;;;;;;;;;10246018;28;20023;-67
2024/02/12 21:10:44;;;;;;;3.33;1.35;;;;;;;;;;10243283;28;20027;-69
2024/02/12 21:15:45;;;;;;;3.00;1.60;;;;;;;;;;10244985;28;20058;-68
2024/02/12 21:20:45;;;;;;;1.80;1.55;;;;;;;;;;10244013;28;20476;-68
2024/02/12 21:25:46;;;;;;;2.13;1.50;;;;;;;;;;10243252;28;20030;-66
2024/02/12 21:30:46;;;;;;;1.40;1.30;;;;;;;;;;10231055;28;20054;-60
2024/02/12 21:35:47;;;;;;;1.63;1.40;;;;;;;;;;10241005;28;20031;-61
2024/02/12 21:40:50;;;;;;;1.88;1.38;;;;;;;;;;10242055;28;20035;-65
2024/02/12 21:45:51;;;;;;;2.05;1.65;;;;;;;;;;10232013;28;20027;-66
2024/02/12 21:50:52;;;;;;;3.15;1.40;;;;;;;;;;10237990;28;20063;-63
2024/02/12 21:55:52;;;;;;;2.28;1.40;;;;;;;;;;10243928;28;20027;-64
2024/02/12 22:00:53;;;;;;;2.70;1.80;;;;;;;;;;10246361;28;20032;-64
2024/02/12 22:05:56;;;;;;;5.68;2.20;;;;;;;;;;10249209;28;20039;-63
2024/02/12 22:10:56;;;;;;;3.10;1.60;;;;;;;;;;10245392;28;20081;-60
2024/02/12 22:15:57;;;;;;;2.38;1.70;;;;;;;;;;10252758;28;20086;-64
2024/02/12 22:20:58;;;;;;;6.32;1.45;;;;;;;;;;10244748;28;20066;-61
2024/02/12 22:25:59;;;;;;;3.47;2.08;;;;;;;;;;10250427;28;20045;-66
2024/02/12 22:30:59;;;;;;;3.35;1.90;;;;;;;;;;10250275;28;20098;-63
2024/02/12 22:36:01;;;;;;;5.72;1.90;;;;;;;;;;10246078;28;20047;-64
2024/02/12 22:41:02;;;;;;;2.38;1.52;;;;;;;;;;10251563;28;20066;-60
2024/02/12 22:46:03;;;;;;;2.80;1.70;;;;;;;;;;10249610;28;20118;-59
2024/02/12 22:51:04;;;;;;;2.17;1.40;;;;;;;;;;10252069;28;20404;-60
2024/02/12 22:56:05;;;;;;;13.48;2.08;;;;;;;;;;10248768;28;20035;-60
2024/02/12 23:01:05;;;;;;;2.60;1.60;;;;;;;;;;10249554;28;20098;-60
2024/02/12 23:06:06;;;;;;;2.10;1.50;;;;;;;;;;10256824;28;20395;-60
2024/02/12 23:11:07;;;;;;;2.25;1.75;;;;;;;;;;10250354;28;20039;-60
2024/02/12 23:16:08;;;;;;;2.50;1.60;;;;;;;;;;10249216;28;20023;-62
2024/02/12 23:21:10;;;;;;;2.72;1.60;;;;;;;;;;10237954;28;20040;-63
2024/02/12 23:26:10;;;;;;;4.45;1.92;;;;;;;;;;10236288;28;20077;-61
2024/02/12 23:31:12;;;;;;;2.97;1.52;;;;;;;;;;10191446;28;20034;-60
2024/02/12 23:36:13;;;;;;;3.80;1.70;;;;;;;;;;10106430;28;20043;-59
2024/02/12 23:41:14;;;;;;;1.88;1.70;;;;;;;;;;10107106;28;20383;-63
2024/02/12 23:46:15;;;;;;;2.28;1.73;;;;;;;;;;10106772;28;20035;-61
2024/02/12 23:51:15;;;;;;;3.15;1.85;;;;;;;;;;10110121;28;20506;-63
2024/02/12 23:56:22;;;;;;;5.45;1.73;;;;;;;;;;10109271;28;20466;-61
